Weather at Aneityum Airport

Public forecast

Using degrees Celsius for public forecast. Weather courtesy of forecast.io.

Current aviation weather report (METAR) for Aneityum Airport

Report is more than 6 hours old.

Retrieved 2022/07/04 03:00 UTC (13 hours ago):

NVVA 040300Z 09005KT 9999 FEW015 BKN02 26/22 Q1014

Aviation forecast (TAF) for Aneityum Airport

Forecast is more than 6 hours old.

Retrieved 2022/07/04 06:00 UTC (10 hours ago):

TAF NVVA 040500Z 0406/0506 10008KT 9999 SCT020 PROB30 INTER 0406/0412 9000 -SHRA BKN018